sensor_id;sensor_type;location;lat;lon;timestamp;P1;durP1;ratioP1;P2;durP2;ratioP2
45867;SDS011;31582;45.490;7.860;2023-02-21T00:01:40;3.40;;;3.30;;
45867;SDS011;31582;45.490;7.860;2023-02-21T00:04:26;3.10;;;3.00;;
45867;SDS011;31582;45.490;7.860;2023-02-21T00:07:11;3.22;;;3.13;;
45867;SDS011;31582;45.490;7.860;2023-02-21T00:09:57;3.80;;;3.70;;
45867;SDS011;31582;45.490;7.860;2023-02-21T00:12:42;3.90;;;3.70;;
45867;SDS011;31582;45.490;7.860;2023-02-21T00:15:28;3.23;;;3.13;;
45867;SDS011;31582;45.490;7.860;2023-02-21T00:18:13;3.03;;;2.92;;
45867;SDS011;31582;45.490;7.860;2023-02-21T00:20:59;3.10;;;3.00;;
45867;SDS011;31582;45.490;7.860;2023-02-21T00:23:44;2.80;;;2.70;;
45867;SDS011;31582;45.490;7.860;2023-02-21T00:26:30;2.92;;;2.83;;
45867;SDS011;31582;45.490;7.860;2023-02-21T00:29:15;2.90;;;2.80;;
45867;SDS011;31582;45.490;7.860;2023-02-21T00:32:01;2.78;;;2.67;;
45867;SDS011;31582;45.490;7.860;2023-02-21T00:34:46;1.88;;;1.88;;
45867;SDS011;31582;45.490;7.860;2023-02-21T00:37:32;2.20;;;2.10;;
45867;SDS011;31582;45.490;7.860;2023-02-21T00:40:17;2.17;;;2.07;;
45867;SDS011;31582;45.490;7.860;2023-02-21T00:43:03;2.07;;;1.97;;
45867;SDS011;31582;45.490;7.860;2023-02-21T00:45:49;2.22;;;2.13;;
45867;SDS011;31582;45.490;7.860;2023-02-21T00:48:34;2.60;;;2.50;;
45867;SDS011;31582;45.490;7.860;2023-02-21T00:51:20;2.40;;;2.30;;
45867;SDS011;31582;45.490;7.860;2023-02-21T00:54:05;2.53;;;2.42;;
45867;SDS011;31582;45.490;7.860;2023-02-21T00:56:51;2.47;;;2.38;;
45867;SDS011;31582;45.490;7.860;2023-02-21T00:59:36;2.70;;;2.60;;
45867;SDS011;31582;45.490;7.860;2023-02-21T01:02:21;2.55;;;2.45;;
45867;SDS011;31582;45.490;7.860;2023-02-21T01:05:07;2.95;;;2.85;;
45867;SDS011;31582;45.490;7.860;2023-02-21T01:07:52;2.78;;;2.67;;
45867;SDS011;31582;45.490;7.860;2023-02-21T01:10:41;2.80;;;2.70;;
45867;SDS011;31582;45.490;7.860;2023-02-21T01:13:26;2.97;;;2.88;;
45867;SDS011;31582;45.490;7.860;2023-02-21T01:16:11;2.58;;;2.47;;
45867;SDS011;31582;45.490;7.860;2023-02-21T01:18:57;2.50;;;2.40;;
45867;SDS011;31582;45.490;7.860;2023-02-21T01:21:42;2.90;;;2.80;;
45867;SDS011;31582;45.490;7.860;2023-02-21T01:24:27;3.00;;;2.90;;
45867;SDS011;31582;45.490;7.860;2023-02-21T01:27:13;3.15;;;3.05;;
45867;SDS011;31582;45.490;7.860;2023-02-21T01:29:58;3.80;;;3.70;;
45867;SDS011;31582;45.490;7.860;2023-02-21T01:32:43;3.42;;;3.33;;
45867;SDS011;31582;45.490;7.860;2023-02-21T01:35:28;3.40;;;3.30;;
45867;SDS011;31582;45.490;7.860;2023-02-21T01:38:14;3.33;;;3.22;;
45867;SDS011;31582;45.490;7.860;2023-02-21T01:40:59;3.28;;;3.17;;
45867;SDS011;31582;45.490;7.860;2023-02-21T01:43:58;3.40;;;3.30;;
45867;SDS011;31582;45.490;7.860;2023-02-21T01:46:46;17.85;;;6.47;;
45867;SDS011;31582;45.490;7.860;2023-02-21T01:49:32;5.47;;;5.10;;
45867;SDS011;31582;45.490;7.860;2023-02-21T01:52:20;5.57;;;5.07;;
45867;SDS011;31582;45.490;7.860;2023-02-21T01:55:06;4.70;;;4.50;;
45867;SDS011;31582;45.490;7.860;2023-02-21T01:57:52;4.70;;;4.50;;
45867;SDS011;31582;45.490;7.860;2023-02-21T02:00:39;4.40;;;4.20;;
45867;SDS011;31582;45.490;7.860;2023-02-21T03:22:01;3.22;;;3.13;;
45867;SDS011;31582;45.490;7.860;2023-02-21T03:24:37;3.00;;;2.90;;
45867;SDS011;31582;45.490;7.860;2023-02-21T03:27:07;3.20;;;3.10;;
45867;SDS011;31582;45.490;7.860;2023-02-21T03:29:35;2.80;;;2.70;;
45867;SDS011;31582;45.490;7.860;2023-02-21T03:32:12;3.28;;;3.17;;
45867;SDS011;31582;45.490;7.860;2023-02-21T03:34:46;3.17;;;3.08;;
45867;SDS011;31582;45.490;7.860;2023-02-21T03:39:56;2.85;;;2.75;;
45867;SDS011;31582;45.490;7.860;2023-02-21T03:42:24;3.15;;;3.05;;
45867;SDS011;31582;45.490;7.860;2023-02-21T03:44:51;3.17;;;3.08;;
45867;SDS011;31582;45.490;7.860;2023-02-21T03:47:17;3.13;;;3.03;;
45867;SDS011;31582;45.490;7.860;2023-02-21T03:49:44;3.40;;;3.30;;
45867;SDS011;31582;45.490;7.860;2023-02-21T03:52:11;3.22;;;3.13;;
45867;SDS011;31582;45.490;7.860;2023-02-21T03:54:39;3.20;;;3.10;;
45867;SDS011;31582;45.490;7.860;2023-02-21T03:57:06;3.72;;;3.63;;
45867;SDS011;31582;45.490;7.860;2023-02-21T03:59:33;3.72;;;3.63;;
45867;SDS011;31582;45.490;7.860;2023-02-21T04:02:00;3.50;;;3.40;;
45867;SDS011;31582;45.490;7.860;2023-02-21T04:04:27;3.40;;;3.30;;
45867;SDS011;31582;45.490;7.860;2023-02-21T04:06:54;3.97;;;3.78;;
45867;SDS011;31582;45.490;7.860;2023-02-21T04:09:21;4.03;;;3.83;;
45867;SDS011;31582;45.490;7.860;2023-02-21T04:11:48;4.57;;;4.38;;
45867;SDS011;31582;45.490;7.860;2023-02-21T04:14:15;4.30;;;4.10;;
45867;SDS011;31582;45.490;7.860;2023-02-21T04:16:42;4.23;;;4.03;;
45867;SDS011;31582;45.490;7.860;2023-02-21T04:19:09;3.85;;;3.65;;
45867;SDS011;31582;45.490;7.860;2023-02-21T04:21:36;3.78;;;3.67;;
45867;SDS011;31582;45.490;7.860;2023-02-21T04:24:03;3.67;;;3.58;;
45867;SDS011;31582;45.490;7.860;2023-02-21T04:26:30;3.58;;;3.47;;
45867;SDS011;31582;45.490;7.860;2023-02-21T04:28:57;3.45;;;3.35;;
45867;SDS011;31582;45.490;7.860;2023-02-21T04:31:24;4.10;;;4.00;;
45867;SDS011;31582;45.490;7.860;2023-02-21T04:33:51;4.30;;;4.10;;
45867;SDS011;31582;45.490;7.860;2023-02-21T04:36:34;4.00;;;3.90;;
45867;SDS011;31582;45.490;7.860;2023-02-21T04:39:04;3.70;;;3.60;;
45867;SDS011;31582;45.490;7.860;2023-02-21T04:41:31;3.40;;;3.30;;
45867;SDS011;31582;45.490;7.860;2023-02-21T04:43:58;3.28;;;3.17;;
45867;SDS011;31582;45.490;7.860;2023-02-21T04:46:25;3.13;;;3.03;;
45867;SDS011;31582;45.490;7.860;2023-02-21T04:48:52;3.20;;;3.10;;
45867;SDS011;31582;45.490;7.860;2023-02-21T04:51:20;3.13;;;3.03;;
45867;SDS011;31582;45.490;7.860;2023-02-21T04:53:50;3.03;;;2.92;;
45867;SDS011;31582;45.490;7.860;2023-02-21T04:56:19;3.17;;;3.08;;
45867;SDS011;31582;45.490;7.860;2023-02-21T04:58:47;2.67;;;2.58;;
45867;SDS011;31582;45.490;7.860;2023-02-21T05:01:15;3.05;;;2.95;;
45867;SDS011;31582;45.490;7.860;2023-02-21T05:03:43;2.80;;;2.70;;
45867;SDS011;31582;45.490;7.860;2023-02-21T05:06:15;3.20;;;3.10;;
45867;SDS011;31582;45.490;7.860;2023-02-21T05:08:43;2.80;;;2.70;;
45867;SDS011;31582;45.490;7.860;2023-02-21T05:11:10;3.00;;;2.90;;
45867;SDS011;31582;45.490;7.860;2023-02-21T05:13:38;3.10;;;3.00;;
45867;SDS011;31582;45.490;7.860;2023-02-21T05:16:05;3.10;;;3.00;;
45867;SDS011;31582;45.490;7.860;2023-02-21T05:18:32;2.85;;;2.75;;
45867;SDS011;31582;45.490;7.860;2023-02-21T05:20:59;3.60;;;3.45;;
45867;SDS011;31582;45.490;7.860;2023-02-21T05:23:28;3.00;;;2.90;;
45867;SDS011;31582;45.490;7.860;2023-02-21T05:26:03;3.70;;;3.60;;
45867;SDS011;31582;45.490;7.860;2023-02-21T05:28:32;3.10;;;3.00;;
45867;SDS011;31582;45.490;7.860;2023-02-21T05:31:00;3.40;;;3.30;;
45867;SDS011;31582;45.490;7.860;2023-02-21T05:33:27;3.88;;;3.70;;
45867;SDS011;31582;45.490;7.860;2023-02-21T05:35:54;3.30;;;3.20;;
45867;SDS011;31582;45.490;7.860;2023-02-21T05:38:22;3.05;;;2.95;;
45867;SDS011;31582;45.490;7.860;2023-02-21T05:40:50;3.50;;;3.40;;
45867;SDS011;31582;45.490;7.860;2023-02-21T05:43:17;3.55;;;3.45;;
45867;SDS011;31582;45.490;7.860;2023-02-21T05:45:44;3.30;;;3.20;;
45867;SDS011;31582;45.490;7.860;2023-02-21T05:48:11;3.22;;;3.13;;
45867;SDS011;31582;45.490;7.860;2023-02-21T05:50:38;3.50;;;3.40;;
45867;SDS011;31582;45.490;7.860;2023-02-21T05:53:05;3.40;;;3.30;;
45867;SDS011;31582;45.490;7.860;2023-02-21T05:55:32;3.80;;;3.67;;
45867;SDS011;31582;45.490;7.860;2023-02-21T05:57:59;3.70;;;3.50;;
45867;SDS011;31582;45.490;7.860;2023-02-21T06:00:26;4.10;;;3.90;;
45867;SDS011;31582;45.490;7.860;2023-02-21T06:02:55;3.70;;;3.50;;
45867;SDS011;31582;45.490;7.860;2023-02-21T06:05:22;3.65;;;3.55;;
45867;SDS011;31582;45.490;7.860;2023-02-21T06:07:50;4.55;;;4.35;;
45867;SDS011;31582;45.490;7.860;2023-02-21T06:10:17;3.38;;;3.28;;
45867;SDS011;31582;45.490;7.860;2023-02-21T06:12:45;3.60;;;3.50;;
45867;SDS011;31582;45.490;7.860;2023-02-21T06:15:12;4.45;;;4.25;;
45867;SDS011;31582;45.490;7.860;2023-02-21T06:17:41;4.00;;;3.80;;
45867;SDS011;31582;45.490;7.860;2023-02-21T06:20:12;4.63;;;4.43;;
45867;SDS011;31582;45.490;7.860;2023-02-21T06:22:42;4.60;;;4.40;;
45867;SDS011;31582;45.490;7.860;2023-02-21T06:25:10;4.90;;;4.60;;
45867;SDS011;31582;45.490;7.860;2023-02-21T06:27:37;4.50;;;4.30;;
45867;SDS011;31582;45.490;7.860;2023-02-21T06:30:04;4.60;;;4.40;;
45867;SDS011;31582;45.490;7.860;2023-02-21T06:32:32;5.03;;;4.72;;
45867;SDS011;31582;45.490;7.860;2023-02-21T06:34:59;4.50;;;4.30;;
45867;SDS011;31582;45.490;7.860;2023-02-21T06:37:26;5.15;;;4.85;;
45867;SDS011;31582;45.490;7.860;2023-02-21T06:39:53;4.90;;;4.60;;
45867;SDS011;31582;45.490;7.860;2023-02-21T06:42:20;4.97;;;4.68;;
45867;SDS011;31582;45.490;7.860;2023-02-21T06:44:48;5.18;;;4.88;;
45867;SDS011;31582;45.490;7.860;2023-02-21T06:47:15;5.38;;;5.05;;
45867;SDS011;31582;45.490;7.860;2023-02-21T06:49:42;4.90;;;4.60;;
45867;SDS011;31582;45.490;7.860;2023-02-21T06:52:09;4.78;;;4.47;;
45867;SDS011;31582;45.490;7.860;2023-02-21T06:54:36;4.75;;;4.45;;
45867;SDS011;31582;45.490;7.860;2023-02-21T06:57:03;4.90;;;4.60;;
45867;SDS011;31582;45.490;7.860;2023-02-21T06:59:31;4.68;;;4.38;;
45867;SDS011;31582;45.490;7.860;2023-02-21T07:01:58;4.23;;;4.03;;
45867;SDS011;31582;45.490;7.860;2023-02-21T07:04:25;4.75;;;4.45;;
45867;SDS011;31582;45.490;7.860;2023-02-21T07:06:52;4.72;;;4.43;;
45867;SDS011;31582;45.490;7.860;2023-02-21T07:09:19;4.90;;;4.60;;
45867;SDS011;31582;45.490;7.860;2023-02-21T07:11:46;4.75;;;4.45;;
45867;SDS011;31582;45.490;7.860;2023-02-21T07:14:13;4.88;;;4.57;;
45867;SDS011;31582;45.490;7.860;2023-02-21T07:16:40;4.95;;;4.65;;
45867;SDS011;31582;45.490;7.860;2023-02-21T07:19:07;5.00;;;4.70;;
45867;SDS011;31582;45.490;7.860;2023-02-21T07:21:34;5.33;;;5.03;;
45867;SDS011;31582;45.490;7.860;2023-02-21T07:24:01;5.07;;;4.78;;
45867;SDS011;31582;45.490;7.860;2023-02-21T07:26:28;5.03;;;4.72;;
45867;SDS011;31582;45.490;7.860;2023-02-21T07:28:55;4.20;;;4.00;;
45867;SDS011;31582;45.490;7.860;2023-02-21T07:31:22;4.30;;;4.10;;
45867;SDS011;31582;45.490;7.860;2023-02-21T07:33:49;4.38;;;4.07;;
45867;SDS011;31582;45.490;7.860;2023-02-21T07:36:16;4.40;;;4.15;;
45867;SDS011;31582;45.490;7.860;2023-02-21T07:38:44;4.30;;;4.10;;
45867;SDS011;31582;45.490;7.860;2023-02-21T07:41:12;4.85;;;4.50;;
45867;SDS011;31582;45.490;7.860;2023-02-21T07:43:41;4.30;;;4.10;;
45867;SDS011;31582;45.490;7.860;2023-02-21T07:46:08;4.88;;;4.57;;
45867;SDS011;31582;45.490;7.860;2023-02-21T07:48:40;4.63;;;4.43;;
45867;SDS011;31582;45.490;7.860;2023-02-21T07:51:07;4.45;;;4.15;;
45867;SDS011;31582;45.490;7.860;2023-02-21T07:53:36;4.63;;;4.32;;
45867;SDS011;31582;45.490;7.860;2023-02-21T07:56:03;4.25;;;4.05;;
45867;SDS011;31582;45.490;7.860;2023-02-21T07:58:30;4.30;;;4.10;;
45867;SDS011;31582;45.490;7.860;2023-02-21T08:00:57;4.30;;;4.10;;
45867;SDS011;31582;45.490;7.860;2023-02-21T08:03:24;4.28;;;3.97;;
45867;SDS011;31582;45.490;7.860;2023-02-21T08:05:51;4.30;;;4.05;;
45867;SDS011;31582;45.490;7.860;2023-02-21T08:08:18;4.40;;;4.17;;
45867;SDS011;31582;45.490;7.860;2023-02-21T08:10:45;4.00;;;3.80;;
45867;SDS011;31582;45.490;7.860;2023-02-21T08:13:12;4.30;;;4.10;;
45867;SDS011;31582;45.490;7.860;2023-02-21T08:15:38;4.20;;;4.00;;
45867;SDS011;31582;45.490;7.860;2023-02-21T08:18:05;4.20;;;4.00;;
45867;SDS011;31582;45.490;7.860;2023-02-21T08:20:32;4.15;;;3.92;;
45867;SDS011;31582;45.490;7.860;2023-02-21T08:23:00;3.75;;;3.55;;
45867;SDS011;31582;45.490;7.860;2023-02-21T08:25:27;4.50;;;4.30;;
45867;SDS011;31582;45.490;7.860;2023-02-21T08:27:54;4.10;;;3.90;;
45867;SDS011;31582;45.490;7.860;2023-02-21T08:30:21;3.92;;;3.72;;
45867;SDS011;31582;45.490;7.860;2023-02-21T08:32:48;3.97;;;3.77;;
45867;SDS011;31582;45.490;7.860;2023-02-21T08:35:21;3.95;;;3.75;;
45867;SDS011;31582;45.490;7.860;2023-02-21T08:37:48;4.30;;;4.10;;
45867;SDS011;31582;45.490;7.860;2023-02-21T08:40:19;4.22;;;4.00;;
45867;SDS011;31582;45.490;7.860;2023-02-21T08:42:49;4.05;;;3.85;;
45867;SDS011;31582;45.490;7.860;2023-02-21T08:45:22;4.53;;;4.22;;
45867;SDS011;31582;45.490;7.860;2023-02-21T08:47:50;3.92;;;3.72;;
45867;SDS011;31582;45.490;7.860;2023-02-21T08:50:21;3.60;;;3.40;;
45867;SDS011;31582;45.490;7.860;2023-02-21T08:52:49;3.50;;;3.30;;
45867;SDS011;31582;45.490;7.860;2023-02-21T08:55:17;3.92;;;3.65;;
45867;SDS011;31582;45.490;7.860;2023-02-21T08:57:49;3.53;;;3.33;;
45867;SDS011;31582;45.490;7.860;2023-02-21T09:00:17;3.47;;;3.28;;
45867;SDS011;31582;45.490;7.860;2023-02-21T09:02:49;3.17;;;3.08;;
45867;SDS011;31582;45.490;7.860;2023-02-21T09:05:21;3.00;;;2.80;;
45867;SDS011;31582;45.490;7.860;2023-02-21T09:07:53;3.38;;;3.17;;
45867;SDS011;31582;45.490;7.860;2023-02-21T09:10:26;3.60;;;3.40;;
45867;SDS011;31582;45.490;7.860;2023-02-21T09:12:54;3.60;;;3.40;;
45867;SDS011;31582;45.490;7.860;2023-02-21T09:15:22;3.60;;;3.40;;
45867;SDS011;31582;45.490;7.860;2023-02-21T09:17:49;4.88;;;4.57;;
45867;SDS011;31582;45.490;7.860;2023-02-21T09:20:18;3.78;;;3.58;;
45867;SDS011;31582;45.490;7.860;2023-02-21T09:22:46;4.05;;;3.75;;
45867;SDS011;31582;45.490;7.860;2023-02-21T09:25:14;4.43;;;4.13;;
45867;SDS011;31582;45.490;7.860;2023-02-21T09:27:42;4.20;;;4.00;;
45867;SDS011;31582;45.490;7.860;2023-02-21T09:30:13;3.97;;;3.77;;
45867;SDS011;31582;45.490;7.860;2023-02-21T09:32:47;4.20;;;4.00;;
45867;SDS011;31582;45.490;7.860;2023-02-21T09:35:14;4.38;;;4.18;;
45867;SDS011;31582;45.490;7.860;2023-02-21T09:37:42;4.32;;;4.13;;
45867;SDS011;31582;45.490;7.860;2023-02-21T09:40:12;4.65;;;4.35;;
45867;SDS011;31582;45.490;7.860;2023-02-21T09:42:54;4.18;;;3.97;;
45867;SDS011;31582;45.490;7.860;2023-02-21T09:45:25;4.13;;;3.92;;
45867;SDS011;31582;45.490;7.860;2023-02-21T09:48:01;4.32;;;4.13;;
45867;SDS011;31582;45.490;7.860;2023-02-21T09:50:38;4.15;;;3.95;;
45867;SDS011;31582;45.490;7.860;2023-02-21T09:53:09;4.38;;;4.18;;
45867;SDS011;31582;45.490;7.860;2023-02-21T09:55:39;4.40;;;4.00;;
45867;SDS011;31582;45.490;7.860;2023-02-21T09:58:11;4.28;;;3.97;;
45867;SDS011;31582;45.490;7.860;2023-02-21T10:00:41;3.85;;;3.65;;
45867;SDS011;31582;45.490;7.860;2023-02-21T10:08:33;2.40;;;2.30;;
45867;SDS011;31582;45.490;7.860;2023-02-21T10:11:42;2.50;;;2.40;;
45867;SDS011;31582;45.490;7.860;2023-02-21T10:19:42;2.25;;;2.15;;
45867;SDS011;31582;45.490;7.860;2023-02-21T10:22:17;2.42;;;2.33;;
45867;SDS011;31582;45.490;7.860;2023-02-21T10:24:48;2.43;;;2.33;;
45867;SDS011;31582;45.490;7.860;2023-02-21T10:27:16;2.10;;;2.00;;
45867;SDS011;31582;45.490;7.860;2023-02-21T10:30:00;1.75;;;1.65;;
45867;SDS011;31582;45.490;7.860;2023-02-21T10:32:30;2.25;;;2.08;;
45867;SDS011;31582;45.490;7.860;2023-02-21T10:34:58;1.90;;;1.80;;
45867;SDS011;31582;45.490;7.860;2023-02-21T10:39:57;2.50;;;2.40;;
45867;SDS011;31582;45.490;7.860;2023-02-21T10:42:38;2.28;;;2.17;;
45867;SDS011;31582;45.490;7.860;2023-02-21T10:45:08;2.13;;;2.03;;
45867;SDS011;31582;45.490;7.860;2023-02-21T10:47:47;2.20;;;2.10;;
45867;SDS011;31582;45.490;7.860;2023-02-21T10:50:41;2.20;;;2.10;;
45867;SDS011;31582;45.490;7.860;2023-02-21T10:53:30;2.40;;;2.20;;
45867;SDS011;31582;45.490;7.860;2023-02-21T10:56:06;2.30;;;2.10;;
45867;SDS011;31582;45.490;7.860;2023-02-21T11:03:56;2.03;;;1.92;;
45867;SDS011;31582;45.490;7.860;2023-02-21T11:06:47;2.38;;;2.28;;
45867;SDS011;31582;45.490;7.860;2023-02-21T11:17:25;2.28;;;2.17;;
45867;SDS011;31582;45.490;7.860;2023-02-21T11:22:37;2.13;;;2.03;;
45867;SDS011;31582;45.490;7.860;2023-02-21T11:28:04;2.73;;;2.63;;
45867;SDS011;31582;45.490;7.860;2023-02-21T11:31:03;2.33;;;2.15;;
45867;SDS011;31582;45.490;7.860;2023-02-21T11:33:40;3.05;;;2.85;;
45867;SDS011;31582;45.490;7.860;2023-02-21T11:36:20;2.27;;;2.17;;
45867;SDS011;31582;45.490;7.860;2023-02-21T11:44:21;1.90;;;1.80;;
45867;SDS011;31582;45.490;7.860;2023-02-21T11:46:49;2.00;;;1.90;;
45867;SDS011;31582;45.490;7.860;2023-02-21T11:49:25;2.30;;;2.15;;
45867;SDS011;31582;45.490;7.860;2023-02-21T11:52:04;3.65;;;3.35;;
45867;SDS011;31582;45.490;7.860;2023-02-21T11:54:34;3.38;;;3.17;;
45867;SDS011;31582;45.490;7.860;2023-02-21T11:59:54;1.90;;;1.80;;
45867;SDS011;31582;45.490;7.860;2023-02-21T12:02:30;2.00;;;1.90;;
45867;SDS011;31582;45.490;7.860;2023-02-21T12:08:17;1.97;;;1.87;;
45867;SDS011;31582;45.490;7.860;2023-02-21T12:14:18;2.30;;;2.20;;
45867;SDS011;31582;45.490;7.860;2023-02-21T12:22:11;2.00;;;1.90;;
45867;SDS011;31582;45.490;7.860;2023-02-21T12:31:10;1.90;;;1.80;;
45867;SDS011;31582;45.490;7.860;2023-02-21T12:33:50;1.98;;;1.88;;
45867;SDS011;31582;45.490;7.860;2023-02-21T12:51:06;2.30;;;2.10;;
45867;SDS011;31582;45.490;7.860;2023-02-21T12:53:46;2.20;;;2.10;;
45867;SDS011;31582;45.490;7.860;2023-02-21T12:56:23;2.00;;;1.90;;
45867;SDS011;31582;45.490;7.860;2023-02-21T12:59:04;1.63;;;1.52;;
45867;SDS011;31582;45.490;7.860;2023-02-21T13:01:46;1.90;;;1.80;;
45867;SDS011;31582;45.490;7.860;2023-02-21T13:04:31;1.95;;;1.85;;
45867;SDS011;31582;45.490;7.860;2023-02-21T13:07:05;2.20;;;2.10;;
45867;SDS011;31582;45.490;7.860;2023-02-21T13:09:47;1.80;;;1.70;;
45867;SDS011;31582;45.490;7.860;2023-02-21T13:12:35;2.05;;;1.95;;
45867;SDS011;31582;45.490;7.860;2023-02-21T13:15:19;1.85;;;1.75;;
45867;SDS011;31582;45.490;7.860;2023-02-21T13:17:59;2.00;;;1.90;;
45867;SDS011;31582;45.490;7.860;2023-02-21T13:20:35;1.80;;;1.70;;
45867;SDS011;31582;45.490;7.860;2023-02-21T13:23:08;2.00;;;1.90;;
45867;SDS011;31582;45.490;7.860;2023-02-21T13:30:51;2.60;;;2.40;;
45867;SDS011;31582;45.490;7.860;2023-02-21T13:33:37;2.28;;;2.17;;
45867;SDS011;31582;45.490;7.860;2023-02-21T13:38:44;2.50;;;2.40;;
45867;SDS011;31582;45.490;7.860;2023-02-21T13:41:12;2.25;;;2.15;;
45867;SDS011;31582;45.490;7.860;2023-02-21T13:43:49;2.97;;;2.77;;
45867;SDS011;31582;45.490;7.860;2023-02-21T13:57:41;3.00;;;2.90;;
45867;SDS011;31582;45.490;7.860;2023-02-21T14:05:24;2.80;;;2.70;;
45867;SDS011;31582;45.490;7.860;2023-02-21T14:07:59;2.93;;;2.73;;
45867;SDS011;31582;45.490;7.860;2023-02-21T14:10:42;2.67;;;2.58;;
45867;SDS011;31582;45.490;7.860;2023-02-21T14:13:26;2.83;;;2.73;;
45867;SDS011;31582;45.490;7.860;2023-02-21T14:15:56;3.15;;;3.03;;
45867;SDS011;31582;45.490;7.860;2023-02-21T14:18:41;3.33;;;3.13;;
45867;SDS011;31582;45.490;7.860;2023-02-21T14:21:09;2.65;;;2.45;;
45867;SDS011;31582;45.490;7.860;2023-02-21T14:23:49;2.88;;;2.78;;
45867;SDS011;31582;45.490;7.860;2023-02-21T14:29:01;3.13;;;2.92;;
45867;SDS011;31582;45.490;7.860;2023-02-21T14:31:53;4.10;;;3.90;;
45867;SDS011;31582;45.490;7.860;2023-02-21T14:34:23;3.15;;;2.95;;
45867;SDS011;31582;45.490;7.860;2023-02-21T14:37:03;2.80;;;2.70;;
45867;SDS011;31582;45.490;7.860;2023-02-21T14:39:53;3.33;;;3.13;;
45867;SDS011;31582;45.490;7.860;2023-02-21T14:42:28;2.80;;;2.67;;
45867;SDS011;31582;45.490;7.860;2023-02-21T15:10:42;2.80;;;2.70;;
45867;SDS011;31582;45.490;7.860;2023-02-21T15:12:52;3.03;;;2.83;;
45867;SDS011;31582;45.490;7.860;2023-02-21T15:15:28;2.92;;;2.72;;
45867;SDS011;31582;45.490;7.860;2023-02-21T15:18:07;3.20;;;3.00;;
45867;SDS011;31582;45.490;7.860;2023-02-21T15:20:36;3.42;;;3.22;;
45867;SDS011;31582;45.490;7.860;2023-02-21T15:25:43;3.38;;;3.17;;
45867;SDS011;31582;45.490;7.860;2023-02-21T15:28:19;3.00;;;2.90;;
45867;SDS011;31582;45.490;7.860;2023-02-21T15:30:57;3.25;;;3.15;;
45867;SDS011;31582;45.490;7.860;2023-02-21T15:33:27;2.95;;;2.83;;
45867;SDS011;31582;45.490;7.860;2023-02-21T15:36:00;3.08;;;2.88;;
45867;SDS011;31582;45.490;7.860;2023-02-21T15:38:42;3.20;;;3.00;;
45867;SDS011;31582;45.490;7.860;2023-02-21T15:41:36;3.13;;;2.93;;
45867;SDS011;31582;45.490;7.860;2023-02-21T15:44:17;3.10;;;2.90;;
45867;SDS011;31582;45.490;7.860;2023-02-21T15:46:50;2.95;;;2.75;;
45867;SDS011;31582;45.490;7.860;2023-02-21T15:49:25;2.83;;;2.63;;
45867;SDS011;31582;45.490;7.860;2023-02-21T15:51:55;2.85;;;2.65;;
45867;SDS011;31582;45.490;7.860;2023-02-21T15:54:27;3.60;;;3.40;;
45867;SDS011;31582;45.490;7.860;2023-02-21T15:59:28;3.00;;;2.90;;
45867;SDS011;31582;45.490;7.860;2023-02-21T16:02:06;4.32;;;4.10;;
45867;SDS011;31582;45.490;7.860;2023-02-21T16:04:37;5.10;;;4.80;;
45867;SDS011;31582;45.490;7.860;2023-02-21T16:07:05;4.32;;;4.03;;
45867;SDS011;31582;45.490;7.860;2023-02-21T16:09:46;4.72;;;4.43;;
45867;SDS011;31582;45.490;7.860;2023-02-21T16:17:53;3.60;;;3.30;;
45867;SDS011;31582;45.490;7.860;2023-02-21T16:20:30;3.63;;;3.42;;
45867;SDS011;31582;45.490;7.860;2023-02-21T16:28:28;2.78;;;2.67;;
45867;SDS011;31582;45.490;7.860;2023-02-21T16:30:58;3.07;;;2.87;;
45867;SDS011;31582;45.490;7.860;2023-02-21T16:33:27;2.75;;;2.65;;
45867;SDS011;31582;45.490;7.860;2023-02-21T16:35:55;3.05;;;2.95;;
45867;SDS011;31582;45.490;7.860;2023-02-21T16:38:23;2.90;;;2.80;;
45867;SDS011;31582;45.490;7.860;2023-02-21T16:40:51;2.85;;;2.70;;
45867;SDS011;31582;45.490;7.860;2023-02-21T16:43:22;3.15;;;3.00;;
45867;SDS011;31582;45.490;7.860;2023-02-21T16:45:51;3.00;;;2.85;;
45867;SDS011;31582;45.490;7.860;2023-02-21T16:48:22;2.72;;;2.60;;
45867;SDS011;31582;45.490;7.860;2023-02-21T16:50:59;2.88;;;2.72;;
45867;SDS011;31582;45.490;7.860;2023-02-21T16:53:30;3.03;;;2.92;;
45867;SDS011;31582;45.490;7.860;2023-02-21T16:55:58;3.13;;;2.92;;
45867;SDS011;31582;45.490;7.860;2023-02-21T16:58:34;3.15;;;2.95;;
45867;SDS011;31582;45.490;7.860;2023-02-21T17:01:09;2.67;;;2.58;;
45867;SDS011;31582;45.490;7.860;2023-02-21T17:03:43;2.83;;;2.72;;
45867;SDS011;31582;45.490;7.860;2023-02-21T17:06:14;2.83;;;2.63;;
45867;SDS011;31582;45.490;7.860;2023-02-21T17:08:44;2.80;;;2.60;;
45867;SDS011;31582;45.490;7.860;2023-02-21T17:11:11;3.78;;;3.58;;
45867;SDS011;31582;45.490;7.860;2023-02-21T17:13:38;5.27;;;4.87;;
45867;SDS011;31582;45.490;7.860;2023-02-21T17:16:05;7.40;;;6.90;;
45867;SDS011;31582;45.490;7.860;2023-02-21T17:18:33;5.03;;;4.63;;
45867;SDS011;31582;45.490;7.860;2023-02-21T17:21:00;9.20;;;8.40;;
45867;SDS011;31582;45.490;7.860;2023-02-21T17:23:28;4.80;;;4.50;;
45867;SDS011;31582;45.490;7.860;2023-02-21T17:25:55;3.28;;;3.08;;
45867;SDS011;31582;45.490;7.860;2023-02-21T17:28:22;7.55;;;6.95;;
45867;SDS011;31582;45.490;7.860;2023-02-21T17:30:49;4.25;;;3.85;;
45867;SDS011;31582;45.490;7.860;2023-02-21T17:33:16;3.67;;;3.47;;
45867;SDS011;31582;45.490;7.860;2023-02-21T17:35:43;3.45;;;3.25;;
45867;SDS011;31582;45.490;7.860;2023-02-21T17:38:10;3.70;;;3.40;;
45867;SDS011;31582;45.490;7.860;2023-02-21T17:40:37;3.25;;;3.05;;
45867;SDS011;31582;45.490;7.860;2023-02-21T17:43:04;3.22;;;3.03;;
45867;SDS011;31582;45.490;7.860;2023-02-21T17:45:34;3.58;;;3.38;;
45867;SDS011;31582;45.490;7.860;2023-02-21T17:48:04;3.40;;;3.20;;
45867;SDS011;31582;45.490;7.860;2023-02-21T17:50:31;3.65;;;3.45;;
45867;SDS011;31582;45.490;7.860;2023-02-21T17:52:59;4.10;;;3.80;;
45867;SDS011;31582;45.490;7.860;2023-02-21T17:55:26;3.63;;;3.42;;
45867;SDS011;31582;45.490;7.860;2023-02-21T17:57:55;4.20;;;3.83;;
45867;SDS011;31582;45.490;7.860;2023-02-21T18:00:24;4.20;;;3.92;;
45867;SDS011;31582;45.490;7.860;2023-02-21T18:02:53;5.68;;;5.28;;
45867;SDS011;31582;45.490;7.860;2023-02-21T18:05:20;5.55;;;5.25;;
45867;SDS011;31582;45.490;7.860;2023-02-21T18:07:48;4.43;;;4.13;;
45867;SDS011;31582;45.490;7.860;2023-02-21T18:10:18;4.18;;;3.90;;
45867;SDS011;31582;45.490;7.860;2023-02-21T18:12:48;4.28;;;4.05;;
45867;SDS011;31582;45.490;7.860;2023-02-21T18:15:18;5.28;;;4.88;;
45867;SDS011;31582;45.490;7.860;2023-02-21T18:17:46;4.55;;;4.32;;
45867;SDS011;31582;45.490;7.860;2023-02-21T18:20:14;5.30;;;5.00;;
45867;SDS011;31582;45.490;7.860;2023-02-21T18:22:41;4.53;;;4.15;;
45867;SDS011;31582;45.490;7.860;2023-02-21T18:25:09;4.90;;;4.60;;
45867;SDS011;31582;45.490;7.860;2023-02-21T18:27:39;4.93;;;4.63;;
45867;SDS011;31582;45.490;7.860;2023-02-21T18:30:07;3.67;;;3.47;;
45867;SDS011;31582;45.490;7.860;2023-02-21T18:32:34;4.47;;;4.28;;
45867;SDS011;31582;45.490;7.860;2023-02-21T18:35:01;4.20;;;3.97;;
45867;SDS011;31582;45.490;7.860;2023-02-21T18:37:28;3.95;;;3.72;;
45867;SDS011;31582;45.490;7.860;2023-02-21T18:39:55;3.50;;;3.30;;
45867;SDS011;31582;45.490;7.860;2023-02-21T18:42:22;3.30;;;3.10;;
45867;SDS011;31582;45.490;7.860;2023-02-21T18:44:50;3.95;;;3.67;;
45867;SDS011;31582;45.490;7.860;2023-02-21T18:47:17;3.80;;;3.60;;
45867;SDS011;31582;45.490;7.860;2023-02-21T18:49:45;3.67;;;3.47;;
45867;SDS011;31582;45.490;7.860;2023-02-21T18:52:13;4.60;;;4.30;;
45867;SDS011;31582;45.490;7.860;2023-02-21T18:54:46;4.30;;;4.03;;
45867;SDS011;31582;45.490;7.860;2023-02-21T18:57:18;4.07;;;3.88;;
45867;SDS011;31582;45.490;7.860;2023-02-21T18:59:47;5.45;;;5.05;;
45867;SDS011;31582;45.490;7.860;2023-02-21T19:02:14;5.82;;;5.45;;
45867;SDS011;31582;45.490;7.860;2023-02-21T19:04:43;5.22;;;4.93;;